createdAt,value
2023-02-26T00:01:31.639Z,2.00
2023-02-26T00:04:08.135Z,2.00
2023-02-26T00:06:52.520Z,1.90
2023-02-26T00:09:28.653Z,1.90
2023-02-26T00:12:04.795Z,1.90
2023-02-26T00:14:40.149Z,1.90
2023-02-26T00:17:33.860Z,1.90
2023-02-26T00:20:11.972Z,1.90
2023-02-26T00:22:47.241Z,1.90
2023-02-26T00:25:22.130Z,1.80
2023-02-26T00:27:57.518Z,1.80
2023-02-26T00:30:33.257Z,1.80
2023-02-26T00:33:08.495Z,1.80
2023-02-26T00:35:45.580Z,1.80
2023-02-26T00:38:20.519Z,1.70
2023-02-26T00:40:56.771Z,1.70
2023-02-26T00:43:32.177Z,1.70
2023-02-26T00:46:48.944Z,1.70
2023-02-26T00:50:02.562Z,1.60
2023-02-26T00:53:13.272Z,1.60
2023-02-26T00:55:48.301Z,1.50
2023-02-26T00:58:23.323Z,1.40
2023-02-26T01:01:00.016Z,1.40
2023-02-26T01:03:35.481Z,1.40
2023-02-26T01:06:15.807Z,1.30
2023-02-26T01:09:10.180Z,1.30
2023-02-26T01:11:45.927Z,1.30
2023-02-26T01:14:22.158Z,1.30
2023-02-26T01:17:17.518Z,1.30
2023-02-26T01:19:58.528Z,1.30
2023-02-26T01:22:54.298Z,1.30
2023-02-26T01:25:49.898Z,1.30
2023-02-26T01:28:26.627Z,1.20
2023-02-26T01:31:05.855Z,1.10
2023-02-26T01:33:56.545Z,1.00
2023-02-26T01:36:37.879Z,1.00
2023-02-26T01:39:23.776Z,1.00
2023-02-26T01:42:27.745Z,0.90
2023-02-26T01:45:17.660Z,0.90
2023-02-26T01:48:20.885Z,0.80
2023-02-26T01:50:55.855Z,0.80
2023-02-26T01:53:31.024Z,0.80
2023-02-26T01:56:17.322Z,0.70
2023-02-26T01:58:53.458Z,0.70
2023-02-26T02:01:28.532Z,0.60
2023-02-26T02:04:06.444Z,0.60
2023-02-26T02:06:43.818Z,0.60
2023-02-26T02:09:19.321Z,0.50
2023-02-26T02:12:12.020Z,0.50
2023-02-26T02:15:13.609Z,0.40
2023-02-26T02:18:01.069Z,0.40
2023-02-26T02:21:29.785Z,0.40
2023-02-26T02:24:21.217Z,0.30
2023-02-26T02:27:47.972Z,0.30
2023-02-26T02:31:05.940Z,0.20
2023-02-26T02:33:49.070Z,0.20
2023-02-26T02:36:36.540Z,0.20
2023-02-26T02:39:33.467Z,0.20
2023-02-26T02:42:44.135Z,0.10
2023-02-26T02:45:27.171Z,0.10
2023-02-26T02:48:21.370Z,0.10
2023-02-26T02:51:03.061Z,0.00
2023-02-26T02:53:50.692Z,0.00
2023-02-26T02:56:55.524Z,0.00
2023-02-26T02:59:39.881Z,0.00
2023-02-26T03:02:40.844Z,0.00
2023-02-26T03:05:16.906Z,-0.10
2023-02-26T03:08:03.371Z,-0.10
2023-02-26T03:10:39.338Z,-0.10
2023-02-26T03:13:24.407Z,-0.10
2023-02-26T03:17:02.371Z,-0.10
2023-02-26T03:20:05.344Z,0.00
2023-02-26T03:22:52.288Z,0.00
2023-02-26T03:26:11.929Z,0.10
2023-02-26T03:29:08.862Z,0.10
2023-02-26T03:31:54.688Z,0.10
2023-02-26T03:34:43.928Z,0.10
2023-02-26T03:37:47.830Z,0.00
2023-02-26T03:40:49.411Z,-0.10
2023-02-26T03:43:37.492Z,-0.10
2023-02-26T03:46:23.037Z,-0.20
2023-02-26T03:49:05.702Z,-0.20
2023-02-26T03:51:43.586Z,-0.20
2023-02-26T03:54:59.657Z,-0.30
2023-02-26T03:57:53.499Z,-0.30
2023-02-26T04:00:38.219Z,-0.40
2023-02-26T04:03:53.583Z,-0.40
2023-02-26T04:06:29.570Z,-0.40
2023-02-26T04:09:05.964Z,-0.50
2023-02-26T04:11:45.233Z,-0.50
2023-02-26T04:14:20.331Z,-0.50
2023-02-26T04:16:56.148Z,-0.50
2023-02-26T04:19:32.048Z,-0.50
2023-02-26T04:22:07.025Z,-0.50
2023-02-26T04:24:41.984Z,-0.50
2023-02-26T04:27:18.665Z,-0.50
2023-02-26T04:29:54.031Z,-0.60
2023-02-26T04:32:29.393Z,-0.60
2023-02-26T04:35:05.015Z,-0.60
2023-02-26T04:37:39.970Z,-0.60
2023-02-26T04:40:14.946Z,-0.70
2023-02-26T04:42:50.963Z,-0.60
2023-02-26T04:45:30.986Z,-0.60
2023-02-26T04:48:05.884Z,-0.60
2023-02-26T04:50:40.988Z,-0.60
2023-02-26T04:53:16.064Z,-0.60
2023-02-26T04:55:52.432Z,-0.60
2023-02-26T04:58:27.699Z,-0.50
2023-02-26T05:01:05.940Z,-0.60
2023-02-26T05:03:40.914Z,-0.60
2023-02-26T05:06:15.950Z,-0.70
2023-02-26T05:08:50.911Z,-0.70
2023-02-26T05:11:26.755Z,-0.70
2023-02-26T05:14:01.928Z,-0.70
2023-02-26T05:16:38.479Z,-0.70
2023-02-26T05:19:13.520Z,-0.70
2023-02-26T05:21:49.301Z,-0.80
2023-02-26T05:24:24.324Z,-0.80
2023-02-26T05:26:59.297Z,-0.80
2023-02-26T05:29:34.226Z,-0.80
2023-02-26T05:32:12.001Z,-0.80
2023-02-26T05:34:46.911Z,-0.80
2023-02-26T05:37:21.754Z,-0.80
2023-02-26T05:39:56.703Z,-0.90
2023-02-26T05:42:31.548Z,-0.90
2023-02-26T05:45:07.890Z,-0.90
2023-02-26T05:47:42.762Z,-0.90
2023-02-26T05:50:18.058Z,-1.00
2023-02-26T05:52:53.375Z,-1.00
2023-02-26T05:55:28.315Z,-1.00
2023-02-26T05:58:03.268Z,-1.00
2023-02-26T06:00:38.410Z,-1.10
2023-02-26T06:03:14.439Z,-1.10
2023-02-26T06:05:49.426Z,-1.10
2023-02-26T06:08:24.279Z,-1.10
2023-02-26T06:10:59.199Z,-1.10
2023-02-26T06:13:34.134Z,-1.10
2023-02-26T06:16:09.109Z,-1.10
2023-02-26T06:18:43.970Z,-1.10
2023-02-26T06:21:19.173Z,-1.10
2023-02-26T06:23:54.104Z,-1.10
2023-02-26T06:26:29.415Z,-1.10
2023-02-26T06:29:04.532Z,-1.20
2023-02-26T06:31:39.749Z,-1.10
2023-02-26T06:34:14.802Z,-1.10
2023-02-26T06:36:49.687Z,-1.10
2023-02-26T06:39:24.633Z,-1.00
2023-02-26T06:41:59.833Z,-0.90
2023-02-26T06:44:34.686Z,-0.80
2023-02-26T06:47:09.600Z,-0.70
2023-02-26T06:49:44.551Z,-0.60
2023-02-26T06:52:19.775Z,-0.50
2023-02-26T06:54:54.650Z,-0.50
2023-02-26T06:57:29.608Z,-0.40
2023-02-26T07:00:06.712Z,-0.40
2023-02-26T07:02:41.699Z,-0.30
2023-02-26T07:05:17.203Z,-0.20
2023-02-26T07:07:52.132Z,-0.10
2023-02-26T07:10:27.386Z,0.10
2023-02-26T07:13:02.873Z,0.20
2023-02-26T07:15:37.966Z,0.30
2023-02-26T07:18:13.022Z,0.30
2023-02-26T07:20:50.286Z,0.40
2023-02-26T07:23:25.281Z,0.40
2023-02-26T07:26:00.306Z,0.40
2023-02-26T07:28:35.505Z,0.50
2023-02-26T07:31:10.623Z,0.60
2023-02-26T07:33:45.646Z,0.70
2023-02-26T07:36:20.632Z,0.80
2023-02-26T07:38:55.789Z,0.90
2023-02-26T07:41:34.062Z,1.00
2023-02-26T07:44:09.728Z,1.00
2023-02-26T07:46:44.982Z,1.10
2023-02-26T07:49:20.204Z,1.10
2023-02-26T07:51:55.241Z,1.30
2023-02-26T07:54:30.376Z,1.30
2023-02-26T07:57:05.446Z,1.40
2023-02-26T07:59:40.458Z,1.50
2023-02-26T08:02:15.471Z,1.60
2023-02-26T08:04:50.390Z,1.80
2023-02-26T08:07:25.321Z,1.90
2023-02-26T08:10:00.479Z,2.00
2023-02-26T08:12:36.613Z,2.10
2023-02-26T08:15:14.319Z,2.20
2023-02-26T08:17:52.403Z,2.20
2023-02-26T08:20:27.329Z,2.20
2023-02-26T08:23:02.389Z,2.40
2023-02-26T08:25:37.353Z,2.40
2023-02-26T08:28:12.777Z,2.50
2023-02-26T08:30:47.692Z,2.60
2023-02-26T08:33:25.649Z,2.70
2023-02-26T08:36:01.654Z,2.70
2023-02-26T08:38:36.767Z,2.90
2023-02-26T08:41:11.793Z,2.90
2023-02-26T08:43:47.533Z,2.90
2023-02-26T08:46:22.583Z,2.90
2023-02-26T08:48:57.800Z,3.00
2023-02-26T08:51:33.186Z,2.80
2023-02-26T08:54:09.889Z,2.70
2023-02-26T08:56:45.893Z,2.60
2023-02-26T08:59:21.015Z,2.60
2023-02-26T09:01:56.987Z,2.70
2023-02-26T09:04:31.942Z,2.70
2023-02-26T09:07:07.258Z,2.80
2023-02-26T09:09:42.522Z,3.00
2023-02-26T09:12:17.405Z,3.20
2023-02-26T09:14:52.460Z,3.50
2023-02-26T09:17:27.512Z,3.60
2023-02-26T09:20:04.228Z,3.60
2023-02-26T09:22:39.266Z,3.50
2023-02-26T09:25:15.306Z,3.60
2023-02-26T09:27:50.855Z,3.60
2023-02-26T09:30:26.108Z,3.60
2023-02-26T09:33:01.128Z,3.60
2023-02-26T09:35:36.413Z,3.50
2023-02-26T09:38:11.330Z,3.50
2023-02-26T09:40:53.096Z,3.60
2023-02-26T09:44:16.430Z,3.60
2023-02-26T09:46:55.012Z,3.50
2023-02-26T09:49:54.621Z,3.40
2023-02-26T09:53:15.856Z,3.50
2023-02-26T09:55:53.689Z,3.50
2023-02-26T09:58:39.504Z,3.50
2023-02-26T10:01:16.314Z,3.40
2023-02-26T10:04:07.547Z,3.40
2023-02-26T10:07:10.321Z,3.40
2023-02-26T10:10:20.151Z,3.40
2023-02-26T10:12:57.076Z,3.30
2023-02-26T10:15:42.580Z,3.40
2023-02-26T10:18:26.493Z,3.50
2023-02-26T10:21:17.260Z,3.60
2023-02-26T10:23:57.573Z,3.80
2023-02-26T10:27:16.704Z,4.00
2023-02-26T10:30:24.999Z,4.10
2023-02-26T10:33:39.437Z,4.40
2023-02-26T10:36:33.128Z,4.60
2023-02-26T10:39:29.279Z,4.70
2023-02-26T10:42:14.199Z,4.80
2023-02-26T10:45:23.333Z,4.90
2023-02-26T10:48:10.217Z,5.00
2023-02-26T10:50:52.274Z,5.10
2023-02-26T10:53:34.615Z,5.10
2023-02-26T10:56:20.897Z,4.90
2023-02-26T10:58:55.981Z,4.80
2023-02-26T11:01:31.954Z,4.60
2023-02-26T11:04:12.666Z,4.40
2023-02-26T11:07:02.101Z,4.20
2023-02-26T11:09:45.121Z,4.10
2023-02-26T11:12:24.030Z,4.10
2023-02-26T11:15:02.066Z,4.10
2023-02-26T11:17:37.327Z,4.00
2023-02-26T11:20:24.841Z,4.20
2023-02-26T11:23:02.880Z,4.50
2023-02-26T11:25:39.198Z,4.90
2023-02-26T11:28:23.460Z,5.30
2023-02-26T11:31:05.624Z,5.50
2023-02-26T11:33:49.120Z,5.70
2023-02-26T11:36:28.783Z,5.70
2023-02-26T11:39:19.309Z,5.80
2023-02-26T11:41:59.524Z,5.80
2023-02-26T11:44:43.817Z,5.80
2023-02-26T11:47:27.189Z,5.80
2023-02-26T11:50:13.010Z,5.90
2023-02-26T11:52:57.849Z,5.90
2023-02-26T11:55:44.551Z,5.80
2023-02-26T11:58:25.067Z,5.70
2023-02-26T12:01:02.701Z,5.50
2023-02-26T12:03:40.993Z,5.40
2023-02-26T12:06:20.466Z,5.30
2023-02-26T12:08:55.736Z,5.30
2023-02-26T12:12:13.202Z,5.20
2023-02-26T12:15:09.269Z,5.30
2023-02-26T12:18:25.096Z,5.30
2023-02-26T12:21:26.556Z,5.30
2023-02-26T12:24:42.655Z,5.40
2023-02-26T12:27:35.402Z,5.50
2023-02-26T12:30:57.951Z,5.50
2023-02-26T12:34:01.443Z,5.40
2023-02-26T12:37:25.167Z,5.30
2023-02-26T12:40:06.529Z,5.10
2023-02-26T12:42:55.627Z,4.90
2023-02-26T12:45:55.690Z,4.90
2023-02-26T12:49:21.222Z,5.10
2023-02-26T12:52:35.228Z,5.10
2023-02-26T12:55:56.133Z,5.10
2023-02-26T12:59:01.948Z,5.20
2023-02-26T13:02:06.313Z,5.30
2023-02-26T13:04:59.212Z,5.60
2023-02-26T13:08:16.463Z,5.70
2023-02-26T13:11:21.892Z,5.90
2023-02-26T13:14:36.034Z,5.90
2023-02-26T13:17:36.099Z,6.00
2023-02-26T13:20:18.963Z,6.00
2023-02-26T13:23:00.699Z,6.00
2023-02-26T13:25:57.812Z,5.80
2023-02-26T13:28:56.388Z,5.80
2023-02-26T13:31:42.256Z,5.80
2023-02-26T13:34:53.116Z,5.80
2023-02-26T13:37:42.166Z,5.80
2023-02-26T13:40:38.116Z,5.70
2023-02-26T13:43:51.277Z,5.60
2023-02-26T13:46:56.643Z,5.70
2023-02-26T13:49:43.209Z,5.70
2023-02-26T13:52:26.334Z,5.70
2023-02-26T13:55:04.493Z,5.70
2023-02-26T13:57:52.299Z,5.70
2023-02-26T14:00:37.248Z,5.70
2023-02-26T14:03:32.444Z,5.70
2023-02-26T14:06:39.060Z,5.60
2023-02-26T14:10:01.975Z,5.60
2023-02-26T14:12:37.994Z,5.60
2023-02-26T14:15:12.735Z,5.50
2023-02-26T14:17:49.426Z,5.70
2023-02-26T14:20:30.082Z,5.90
2023-02-26T14:23:09.555Z,6.10
2023-02-26T14:25:53.261Z,6.20
2023-02-26T14:28:28.190Z,6.20
2023-02-26T14:31:08.933Z,6.10
2023-02-26T14:34:02.380Z,5.90
2023-02-26T14:37:00.875Z,5.90
2023-02-26T14:39:57.758Z,5.90
2023-02-26T14:42:46.578Z,5.80
2023-02-26T14:45:41.167Z,5.90
2023-02-26T14:48:25.148Z,6.00
2023-02-26T14:51:26.103Z,6.00
2023-02-26T14:55:15.450Z,5.90
2023-02-26T14:58:19.082Z,5.80
2023-02-26T15:01:32.094Z,5.70
2023-02-26T15:04:25.296Z,5.70
2023-02-26T15:07:21.916Z,5.60
2023-02-26T15:10:21.670Z,5.60
2023-02-26T15:13:37.448Z,5.60
2023-02-26T15:16:57.102Z,5.50
2023-02-26T15:20:04.454Z,5.50
2023-02-26T15:22:58.884Z,5.40
2023-02-26T15:25:38.967Z,5.20
2023-02-26T15:28:30.310Z,5.20
2023-02-26T15:31:08.747Z,5.10
2023-02-26T15:33:44.680Z,4.90
2023-02-26T15:36:22.009Z,4.80
2023-02-26T15:39:00.593Z,5.00
2023-02-26T15:41:38.972Z,5.20
2023-02-26T15:44:27.509Z,5.50
2023-02-26T15:47:04.653Z,5.70
2023-02-26T15:49:44.821Z,6.00
2023-02-26T15:52:23.809Z,6.30
2023-02-26T15:55:03.829Z,6.60
2023-02-26T15:57:38.820Z,6.80
2023-02-26T16:00:25.560Z,6.70
2023-02-26T16:03:00.518Z,6.50
2023-02-26T16:05:35.994Z,6.10
2023-02-26T16:08:18.340Z,5.80
2023-02-26T16:10:56.389Z,5.50
2023-02-26T16:13:40.772Z,5.20
2023-02-26T16:16:44.334Z,5.10
2023-02-26T16:19:32.085Z,4.90
2023-02-26T16:22:22.753Z,4.80
2023-02-26T16:25:07.009Z,4.80
2023-02-26T16:27:43.082Z,4.70
2023-02-26T16:30:22.665Z,4.60
2023-02-26T16:32:59.126Z,4.50
2023-02-26T16:35:42.502Z,4.50
2023-02-26T16:38:25.014Z,4.40
2023-02-26T16:41:07.105Z,4.40
2023-02-26T16:43:45.028Z,4.30
2023-02-26T16:46:38.096Z,4.30
2023-02-26T16:49:19.972Z,4.20
2023-02-26T16:51:56.878Z,4.10
2023-02-26T16:54:41.510Z,4.00
2023-02-26T16:57:26.380Z,4.00
2023-02-26T17:00:09.510Z,3.90
2023-02-26T17:02:48.017Z,3.90
2023-02-26T17:05:28.742Z,3.80
2023-02-26T17:08:19.992Z,3.80
2023-02-26T17:11:06.692Z,3.70
2023-02-26T17:13:42.685Z,3.60
2023-02-26T17:16:21.989Z,3.60
2023-02-26T17:18:57.088Z,3.50
2023-02-26T17:21:32.275Z,3.40
2023-02-26T17:24:07.394Z,3.40
2023-02-26T17:26:42.378Z,3.30
2023-02-26T17:29:23.123Z,3.20
2023-02-26T17:31:58.068Z,3.10
2023-02-26T17:34:34.480Z,3.10
2023-02-26T17:37:14.941Z,3.10
2023-02-26T17:39:49.876Z,3.00
2023-02-26T17:42:24.829Z,3.00
2023-02-26T17:45:00.048Z,2.90
2023-02-26T17:47:34.937Z,2.90
2023-02-26T17:50:47.124Z,2.80
2023-02-26T17:53:27.417Z,2.80
2023-02-26T17:56:02.343Z,2.80
2023-02-26T17:58:37.516Z,2.80
2023-02-26T18:01:12.712Z,2.80
2023-02-26T18:03:47.587Z,2.70
2023-02-26T18:06:24.380Z,2.70
2023-02-26T18:08:59.311Z,2.70
2023-02-26T18:11:38.565Z,2.60
2023-02-26T18:14:13.562Z,2.60
2023-02-26T18:16:48.597Z,2.50
2023-02-26T18:19:23.660Z,2.40
2023-02-26T18:21:58.574Z,2.40
2023-02-26T18:24:33.827Z,2.30
2023-02-26T18:27:19.553Z,2.30
2023-02-26T18:29:54.630Z,2.20
2023-02-26T18:32:29.719Z,2.20
2023-02-26T18:35:06.121Z,2.10
2023-02-26T18:37:41.074Z,2.10
2023-02-26T18:40:22.248Z,2.00
2023-02-26T18:42:57.302Z,2.00
2023-02-26T18:45:35.459Z,1.90
2023-02-26T18:48:19.714Z,1.90
2023-02-26T18:50:55.774Z,1.90
2023-02-26T18:53:30.848Z,1.90
2023-02-26T18:56:06.713Z,1.80
2023-02-26T18:58:41.658Z,1.80
2023-02-26T19:01:16.783Z,1.80
2023-02-26T19:03:51.798Z,1.80
2023-02-26T19:06:26.792Z,1.80
2023-02-26T19:09:02.815Z,1.80
2023-02-26T19:11:38.116Z,1.80
2023-02-26T19:14:13.176Z,1.80
2023-02-26T19:16:48.022Z,1.80
2023-02-26T19:19:24.882Z,1.80
2023-02-26T19:22:01.340Z,1.70
2023-02-26T19:24:36.981Z,1.70
2023-02-26T19:27:13.697Z,1.70
2023-02-26T19:29:49.096Z,1.70
2023-02-26T19:32:26.158Z,1.60
2023-02-26T19:35:01.391Z,1.60
2023-02-26T19:37:36.399Z,1.50
2023-02-26T19:40:16.561Z,1.50
2023-02-26T19:42:51.604Z,1.50
2023-02-26T19:45:26.594Z,1.50
2023-02-26T19:48:01.592Z,1.40
2023-02-26T19:50:36.628Z,1.40
2023-02-26T19:53:11.578Z,1.40
2023-02-26T19:55:46.562Z,1.40
2023-02-26T19:58:21.454Z,1.30
2023-02-26T20:00:59.358Z,1.30
2023-02-26T20:03:35.229Z,1.30
2023-02-26T20:06:12.499Z,1.30
2023-02-26T20:08:47.662Z,1.30
2023-02-26T20:11:22.607Z,1.20
2023-02-26T20:13:57.553Z,1.20
2023-02-26T20:16:32.764Z,1.20
2023-02-26T20:19:07.692Z,1.20
2023-02-26T20:21:43.741Z,1.20
2023-02-26T20:24:20.055Z,1.10
2023-02-26T20:26:55.048Z,1.10
2023-02-26T20:29:30.711Z,1.10
2023-02-26T20:32:06.084Z,1.00
2023-02-26T20:34:41.725Z,1.00
2023-02-26T20:37:16.679Z,1.00
2023-02-26T20:39:51.687Z,1.00
2023-02-26T20:42:26.637Z,1.00
2023-02-26T20:45:01.617Z,1.00
2023-02-26T20:47:36.633Z,1.00
2023-02-26T20:50:12.384Z,0.90
2023-02-26T20:52:47.374Z,0.90
2023-02-26T20:55:22.573Z,0.90
2023-02-26T20:57:57.497Z,0.90
2023-02-26T21:00:33.064Z,0.90
2023-02-26T21:03:08.103Z,0.90
2023-02-26T21:05:43.420Z,0.90
2023-02-26T21:08:18.338Z,0.90
2023-02-26T21:10:53.382Z,0.90
2023-02-26T21:13:28.287Z,0.80
2023-02-26T21:16:03.514Z,0.80
2023-02-26T21:18:38.449Z,0.80
2023-02-26T21:21:13.347Z,0.80
2023-02-26T21:23:48.294Z,0.80
2023-02-26T21:26:23.725Z,0.80
2023-02-26T21:29:00.056Z,0.70
2023-02-26T21:31:35.554Z,0.70
2023-02-26T21:34:30.149Z,0.70
2023-02-26T21:37:10.684Z,0.70
2023-02-26T21:39:46.746Z,0.70
2023-02-26T21:42:22.465Z,0.70
2023-02-26T21:44:57.316Z,0.70
2023-02-26T21:47:32.288Z,0.60
2023-02-26T21:50:07.794Z,0.60
2023-02-26T21:52:42.925Z,0.60
2023-02-26T21:55:17.899Z,0.60
2023-02-26T21:57:52.798Z,0.60
2023-02-26T22:00:27.735Z,0.60
2023-02-26T22:03:02.572Z,0.70
2023-02-26T22:05:37.683Z,0.70
2023-02-26T22:08:12.600Z,0.70
2023-02-26T22:10:47.614Z,0.70
2023-02-26T22:13:22.602Z,0.60
2023-02-26T22:15:57.496Z,0.60
2023-02-26T22:18:32.484Z,0.60
2023-02-26T22:21:07.491Z,0.60
2023-02-26T22:23:42.458Z,0.60
2023-02-26T22:26:17.608Z,0.60
2023-02-26T22:28:52.528Z,0.60
2023-02-26T22:31:29.250Z,0.60
2023-02-26T22:34:04.452Z,0.50
2023-02-26T22:36:39.964Z,0.50
2023-02-26T22:39:15.003Z,0.50
2023-02-26T22:41:49.963Z,0.50
2023-02-26T22:44:24.872Z,0.50
2023-02-26T22:46:59.836Z,0.50
2023-02-26T22:49:34.698Z,0.50
2023-02-26T22:52:10.748Z,0.40
2023-02-26T22:54:46.391Z,0.40
2023-02-26T22:57:21.330Z,0.40
2023-02-26T22:59:56.232Z,0.40
2023-02-26T23:02:31.135Z,0.40
2023-02-26T23:05:08.424Z,0.30
2023-02-26T23:07:43.687Z,0.30
2023-02-26T23:10:19.743Z,0.30
2023-02-26T23:12:54.660Z,0.30
2023-02-26T23:15:29.638Z,0.30
2023-02-26T23:18:04.541Z,0.20
2023-02-26T23:20:39.685Z,0.20
2023-02-26T23:23:15.533Z,0.20
2023-02-26T23:25:50.723Z,0.20
2023-02-26T23:28:25.612Z,0.20
2023-02-26T23:31:00.626Z,0.20
2023-02-26T23:33:35.658Z,0.10
2023-02-26T23:36:10.848Z,0.10
2023-02-26T23:38:45.747Z,0.10
2023-02-26T23:41:20.642Z,0.10
2023-02-26T23:43:55.579Z,0.10
2023-02-26T23:46:30.475Z,0.00
2023-02-26T23:49:05.430Z,0.10
2023-02-26T23:51:40.289Z,0.10
2023-02-26T23:54:15.260Z,0.00
2023-02-26T23:56:50.106Z,0.00
2023-02-26T23:59:25.064Z,0.00
